Accueil
METAR-TAF:

METAR-TAF

Aéroports :

Arnhem, Pays-Bas

latitude: 52-04N, longitude: 005-53E, altitude: 48 m

Observation

Le bulletin a été fait il y a 34 minutes, à 14:55 UTC
Vent 6 kt de sud-ouest, variant entre sud et ouest
Température 3°C
Humidité 70%
Pression 1020 hPa
Visibilité 10 km ou plus
Ciel couvert à une hauteur de 3700 ft

METAR: EHDL 211455Z AUTO 22006KT 190V260 9999 OVC037 03/M02 Q1020 BLU

Heure: 16:29 (15:29 UTC)


TAF: absent

Observations et prévisions météorologiques de plus de 4000 aéroports (messages METAR et TAF).

Les stations disponibles sont représentées par des disques jaunes et rouges sur la carte.

Passer la souris dessus pour voir le nom de la station.

Cliquer dessus pour voir les observations et prévisions météorologiques.

Pour changer de carte: cliquez sur les boutons verts avec une croix noire pour zoomer, sur le bouton vert avec un tiret pour effectuer un zoom arrière, ou sur les flèches vertes pour les cartes adjacentes.


METAR-TAF: